IVAO kuvia

<< < (797/1631) > >>

Pade:
Näin alkoi matka kohti Helsinkiä ja 5th Anniversary Event of IVAO Finland -tapahtumaa.
Ja Helsinki METAR: EFHK 051320Z 31017KT 9999 VCSH SCT048 02/M09 Q0996 0419//95 5419//78 1512//89 TEMPO 5000 -SHSN


[ Attachment not found - or removed ]


ps. Lisää kuvia kun matka päättyy ja tullaan Helsinkiin.

Wiljam Simula:
Hiano kuva Patrickilta

OH-TDI:
Morjesta!

EBCI-EFLP legiltä yksi:
[ Attachment not found - or removed ]

jontekin:
Perus hyviä kuvia kaikilta! 

Varsinkin pisti silmään miten Santerin kuviin on tullu terävyyttä ja fiilistä lisää, paranee vaan niinku asiaan kuuluu!

Pade:
Muutama kuva lisää tuolta legiltä joka ei ikinä tullut loppuun asti...


Kone parkissa ja vielä boxi sekoittamatta
[ Attachment not found - or removed ]

Rotate ja kohti Helsinkiä
[ Attachment not found - or removed ]

Vähän on usvasta
[ Attachment not found - or removed ]

Ulkoshotti
[ Attachment not found - or removed ]

Pimeä ohjaamo
[ Attachment not found - or removed ]

Navigation

Up one level

Next page

Previous page